createdAt,value
2022-10-30T00:02:05.390Z,13.37
2022-10-30T00:07:06.912Z,13.35
2022-10-30T00:12:08.350Z,13.25
2022-10-30T00:17:09.770Z,13.18
2022-10-30T00:22:11.744Z,13.16
2022-10-30T00:27:13.171Z,13.09
2022-10-30T00:32:14.702Z,13.13
2022-10-30T00:37:16.094Z,13.16
2022-10-30T00:42:18.011Z,13.07
2022-10-30T00:47:25.599Z,13.05
2022-10-30T00:52:31.718Z,13.00
2022-10-30T00:57:35.472Z,12.96
2022-10-30T01:02:37.990Z,13.02
2022-10-30T01:07:39.464Z,12.96
2022-10-30T01:12:42.620Z,13.01
2022-10-30T01:18:00.177Z,12.88
2022-10-30T01:23:24.561Z,13.07
2022-10-30T01:28:46.569Z,13.00
2022-10-30T01:34:34.209Z,12.92
2022-10-30T01:39:38.593Z,12.93
2022-10-30T01:44:40.569Z,13.00
2022-10-30T01:49:54.843Z,12.94
2022-10-30T01:55:13.237Z,12.93
2022-10-30T02:00:16.840Z,12.95
2022-10-30T02:05:37.453Z,12.88
2022-10-30T02:10:39.322Z,12.86
2022-10-30T02:15:43.348Z,12.95
2022-10-30T02:20:45.019Z,12.91
2022-10-30T02:25:46.416Z,12.92
2022-10-30T02:30:47.832Z,12.98
2022-10-30T02:35:49.327Z,12.93
2022-10-30T02:40:50.881Z,12.79
2022-10-30T02:45:52.870Z,12.72
2022-10-30T02:50:59.393Z,12.58
2022-10-30T02:56:09.263Z,12.61
2022-10-30T03:01:14.263Z,12.71
2022-10-30T03:06:17.007Z,12.76
2022-10-30T03:11:20.580Z,12.74
2022-10-30T03:16:24.329Z,12.61
2022-10-30T03:21:27.787Z,12.52
2022-10-30T03:26:29.201Z,12.49
2022-10-30T03:31:31.472Z,12.51
2022-10-30T03:36:32.942Z,12.52
2022-10-30T03:41:34.443Z,12.54
2022-10-30T03:46:35.819Z,12.57
2022-10-30T03:51:37.270Z,12.45
2022-10-30T03:56:38.715Z,12.38
2022-10-30T04:01:40.220Z,12.31
2022-10-30T04:06:41.820Z,12.30
2022-10-30T04:11:44.183Z,12.35
2022-10-30T04:16:45.591Z,12.38
2022-10-30T04:21:47.085Z,12.37
2022-10-30T04:26:48.658Z,12.39
2022-10-30T04:31:50.165Z,12.38
2022-10-30T04:36:51.683Z,12.36
2022-10-30T04:41:53.168Z,12.24
2022-10-30T04:46:54.697Z,12.26
2022-10-30T04:51:56.335Z,12.26
2022-10-30T04:56:57.769Z,12.20
2022-10-30T05:01:59.321Z,12.27
2022-10-30T05:07:00.915Z,12.28
2022-10-30T05:12:02.387Z,12.12
2022-10-30T05:17:03.876Z,12.19
2022-10-30T05:22:05.359Z,12.34
2022-10-30T05:27:06.815Z,12.26
2022-10-30T05:32:08.307Z,12.36
2022-10-30T05:37:09.838Z,12.15
2022-10-30T05:42:13.654Z,12.12
2022-10-30T05:47:16.274Z,12.35
2022-10-30T05:52:17.687Z,12.29
2022-10-30T05:57:19.414Z,12.23
2022-10-30T06:02:21.419Z,12.19
2022-10-30T06:07:23.031Z,12.22
2022-10-30T06:12:24.499Z,12.06
2022-10-30T06:17:25.926Z,12.09
2022-10-30T06:22:27.501Z,12.10
2022-10-30T06:27:28.952Z,12.03
2022-10-30T06:32:30.367Z,12.10
2022-10-30T06:37:31.800Z,12.14
2022-10-30T06:42:33.315Z,12.17
2022-10-30T06:47:35.706Z,12.19
2022-10-30T06:52:37.486Z,12.06
2022-10-30T06:57:39.162Z,11.78
2022-10-30T07:02:40.654Z,11.95
2022-10-30T07:07:42.132Z,12.15
2022-10-30T07:12:51.174Z,12.24
2022-10-30T07:18:01.842Z,12.38
2022-10-30T07:23:03.908Z,12.31
2022-10-30T07:28:05.461Z,12.27
2022-10-30T07:33:09.149Z,12.38
2022-10-30T07:38:12.577Z,12.47
2022-10-30T07:43:14.120Z,12.26
2022-10-30T07:48:15.593Z,12.46
2022-10-30T07:53:17.191Z,12.58
2022-10-30T07:58:18.722Z,12.63
2022-10-30T08:03:20.496Z,12.65
2022-10-30T08:08:22.084Z,12.81
2022-10-30T08:13:23.589Z,12.68
2022-10-30T08:18:25.126Z,13.13
2022-10-30T08:23:26.740Z,13.33
2022-10-30T08:28:31.682Z,13.51
2022-10-30T08:33:35.173Z,13.84
2022-10-30T08:38:36.818Z,14.00
2022-10-30T08:43:38.270Z,14.18
2022-10-30T08:48:39.683Z,14.45
2022-10-30T08:53:41.175Z,14.53
2022-10-30T08:58:42.771Z,14.71
2022-10-30T09:03:44.614Z,14.70
2022-10-30T09:08:46.619Z,14.70
2022-10-30T09:13:48.041Z,14.77
2022-10-30T09:18:49.458Z,14.95
2022-10-30T09:23:50.990Z,15.09
2022-10-30T09:28:52.374Z,15.28
2022-10-30T09:33:54.609Z,15.18
2022-10-30T09:38:56.029Z,15.33
2022-10-30T09:44:19.248Z,15.47
2022-10-30T09:49:29.748Z,15.53
2022-10-30T09:54:55.900Z,15.65
2022-10-30T10:00:02.310Z,15.70
2022-10-30T10:05:22.340Z,15.94
2022-10-30T10:10:45.923Z,15.97
2022-10-30T10:15:55.846Z,15.92
2022-10-30T10:21:01.972Z,16.20
2022-10-30T10:26:26.827Z,16.12
2022-10-30T10:31:49.177Z,16.28
2022-10-30T10:36:59.714Z,16.17
2022-10-30T10:42:53.869Z,15.94
2022-10-30T10:48:21.322Z,15.74
2022-10-30T10:53:30.598Z,16.11
2022-10-30T10:58:51.578Z,16.16
2022-10-30T11:04:00.277Z,15.98
2022-10-30T11:09:21.430Z,15.98
2022-10-30T11:14:29.101Z,16.24
2022-10-30T11:19:31.643Z,16.35
2022-10-30T11:24:35.434Z,16.28
2022-10-30T11:29:37.035Z,16.27
2022-10-30T11:34:38.526Z,16.31
2022-10-30T11:39:40.167Z,16.35
2022-10-30T11:44:45.498Z,16.81
2022-10-30T11:49:51.944Z,16.56
2022-10-30T11:55:03.051Z,16.58
2022-10-30T12:00:19.804Z,16.56
2022-10-30T12:05:27.412Z,16.56
2022-10-30T12:10:30.560Z,16.76
2022-10-30T12:15:37.769Z,16.65
2022-10-30T12:20:39.338Z,16.69
2022-10-30T12:25:47.804Z,16.88
2022-10-30T12:30:54.843Z,16.94
2022-10-30T12:35:59.003Z,16.86
2022-10-30T12:41:25.927Z,16.94
2022-10-30T12:46:33.983Z,16.83
2022-10-30T12:51:42.187Z,16.92
2022-10-30T12:56:47.987Z,16.88
2022-10-30T13:02:28.260Z,16.99
2022-10-30T13:07:33.898Z,16.89
2022-10-30T13:12:39.536Z,17.03
2022-10-30T13:17:41.246Z,16.69
2022-10-30T13:22:45.322Z,17.00
2022-10-30T13:27:52.801Z,17.02
2022-10-30T13:33:13.340Z,16.74
2022-10-30T13:38:48.997Z,16.41
2022-10-30T13:44:18.590Z,16.30
2022-10-30T13:49:56.444Z,16.18
2022-10-30T13:55:05.588Z,16.39
2022-10-30T14:00:44.510Z,16.60
2022-10-30T14:06:02.725Z,16.70
2022-10-30T14:11:06.114Z,16.66
2022-10-30T14:16:32.634Z,16.76
2022-10-30T14:21:54.813Z,16.88
2022-10-30T14:27:05.306Z,16.79
2022-10-30T14:32:15.598Z,16.84
2022-10-30T14:37:24.452Z,16.84
2022-10-30T14:42:43.467Z,16.75
2022-10-30T14:47:49.473Z,16.61
2022-10-30T14:53:28.892Z,16.66
2022-10-30T14:58:33.509Z,16.62
2022-10-30T15:03:58.277Z,16.48
2022-10-30T15:09:23.664Z,16.42
2022-10-30T15:14:48.480Z,16.25
2022-10-30T15:19:54.478Z,16.15
2022-10-30T15:24:56.542Z,16.11
2022-10-30T15:30:03.739Z,16.07
2022-10-30T15:35:15.929Z,16.11
2022-10-30T15:40:21.570Z,16.12
2022-10-30T15:45:28.716Z,16.06
2022-10-30T15:50:30.524Z,16.00
2022-10-30T15:55:33.177Z,16.01
2022-10-30T16:00:36.842Z,15.93
2022-10-30T16:05:38.366Z,15.93
2022-10-30T16:10:43.245Z,15.86
2022-10-30T16:15:45.403Z,15.82
2022-10-30T16:20:55.696Z,15.73
2022-10-30T16:25:58.870Z,15.73
2022-10-30T16:31:03.277Z,15.64
2022-10-30T16:36:06.183Z,15.54
2022-10-30T16:41:09.244Z,15.42
2022-10-30T16:46:16.553Z,15.31
2022-10-30T16:51:18.807Z,15.24
2022-10-30T16:56:27.937Z,15.16
2022-10-30T17:01:29.651Z,15.09
2022-10-30T17:06:41.722Z,15.03
2022-10-30T17:11:48.174Z,14.91
2022-10-30T17:16:56.574Z,14.84
2022-10-30T17:22:00.659Z,14.81
2022-10-30T17:27:04.818Z,14.70
2022-10-30T17:32:18.295Z,14.64
2022-10-30T17:37:19.704Z,14.53
2022-10-30T17:42:21.315Z,14.53
2022-10-30T17:47:22.716Z,14.48
2022-10-30T17:52:24.124Z,14.46
2022-10-30T17:57:25.566Z,14.34
2022-10-30T18:02:27.230Z,14.34
2022-10-30T18:07:28.660Z,14.29
2022-10-30T18:12:30.053Z,14.10
2022-10-30T18:17:31.454Z,14.05
2022-10-30T18:22:32.842Z,13.92
2022-10-30T18:27:34.301Z,13.91
2022-10-30T18:32:35.715Z,13.78
2022-10-30T18:37:37.141Z,13.76
2022-10-30T18:42:38.901Z,13.68
2022-10-30T18:47:40.361Z,13.53
2022-10-30T18:52:42.227Z,13.60
2022-10-30T18:57:44.222Z,13.41
2022-10-30T19:02:46.405Z,13.49
2022-10-30T19:07:47.931Z,13.38
2022-10-30T19:13:10.864Z,13.41
2022-10-30T19:18:13.483Z,13.46
2022-10-30T19:23:17.162Z,13.37
2022-10-30T19:28:20.276Z,13.29
2022-10-30T19:33:23.254Z,13.24
2022-10-30T19:38:24.968Z,13.02
2022-10-30T19:43:26.523Z,13.07
2022-10-30T19:53:49.430Z,13.00
2022-10-30T19:58:50.944Z,13.05
2022-10-30T20:03:52.452Z,12.93
2022-10-30T20:08:53.955Z,12.93
2022-10-30T20:13:55.329Z,12.80
2022-10-30T20:18:56.769Z,12.61
2022-10-30T20:23:58.218Z,12.62
2022-10-30T20:29:02.384Z,12.49
2022-10-30T20:34:03.930Z,12.47
2022-10-30T20:39:05.729Z,12.40
2022-10-30T20:44:11.548Z,12.44
2022-10-30T20:49:18.098Z,12.61
2022-10-30T20:54:20.037Z,12.52
2022-10-30T20:59:21.726Z,12.39
2022-10-30T21:04:23.215Z,12.46
2022-10-30T21:09:24.730Z,12.32
2022-10-30T21:14:26.352Z,12.15
2022-10-30T21:19:27.812Z,12.05
2022-10-30T21:24:29.255Z,12.20
2022-10-30T21:29:34.218Z,12.04
2022-10-30T21:34:36.771Z,11.99
2022-10-30T21:39:38.353Z,11.99
2022-10-30T21:44:39.894Z,12.16
2022-10-30T21:49:41.412Z,12.00
2022-10-30T21:54:42.890Z,11.97
2022-10-30T21:59:44.366Z,11.99
2022-10-30T22:04:47.414Z,11.93
2022-10-30T22:09:48.946Z,11.89
2022-10-30T22:14:50.429Z,11.81
2022-10-30T22:19:52.011Z,11.70
2022-10-30T22:24:53.492Z,11.83
2022-10-30T22:29:55.262Z,11.79
2022-10-30T22:34:57.830Z,11.66
2022-10-30T22:39:59.381Z,11.61
2022-10-30T22:45:00.836Z,11.90
2022-10-30T22:50:02.248Z,11.81
2022-10-30T22:55:04.018Z,11.63
2022-10-30T23:00:06.576Z,11.58
2022-10-30T23:05:08.024Z,11.59
2022-10-30T23:10:09.737Z,11.56
2022-10-30T23:15:11.446Z,11.47
2022-10-30T23:20:13.081Z,11.47
2022-10-30T23:25:15.765Z,11.39
2022-10-30T23:30:17.425Z,11.43
2022-10-30T23:35:19.116Z,11.33
2022-10-30T23:40:21.069Z,11.32
2022-10-30T23:45:23.077Z,11.36
2022-10-30T23:50:24.644Z,11.50
2022-10-30T23:55:27.036Z,11.35
